AUA813 LOWW-LGIR
Flight info
| Callsign | AUA813 |
|---|---|
| Flight time | 2h 11m |
| Altitude | 37000 |
| Route | ARSIN DCT NALOX DCT BABIT DCT OKTAS DCT REDVA UL616 KOGAT DCT TALAS UM749 ELPIS DCT KEA UL607 GIVIS T514 XAVIS |
| Aircraft | A321/M-SDE3FGHIRWY/LB1 |
Departure
| Time | 2026-05-04 03:29 |
|---|---|
| Airport | Vienna International Airport (LOWW) |
Arrival
| Time | 2026-05-04 05:40 |
|---|---|
| Airport | Heraklion International Nikos Kazantzakis Airport (LGIR) |
| Time | Latitude | Longitude | Altitude | Speed | Heading |
|---|---|---|---|---|---|
| 2026-05-04 03:06 | 48.11784 | 16.56601 | 616 ft | 0 kts | 25° |
| 2026-05-04 03:21 | 48.11770 | 16.56592 | 622 ft | 3 kts | 25° |
| 2026-05-04 03:21 | 48.11751 | 16.56579 | 613 ft | 3 kts | 25° |
| 2026-05-04 03:22 | 48.11735 | 16.56560 | 620 ft | 3 kts | 67° |
| 2026-05-04 03:22 | 48.11732 | 16.56531 | 623 ft | 3 kts | 112° |
| 2026-05-04 03:22 | 48.11733 | 16.56526 | 622 ft | 0 kts | 118° |
| 2026-05-04 03:22 | 48.11732 | 16.56529 | 623 ft | 2 kts | 118° |
| 2026-05-04 03:23 | 48.11697 | 16.56590 | 613 ft | 12 kts | 129° |
| 2026-05-04 03:23 | 48.11653 | 16.56695 | 614 ft | 10 kts | 117° |
| 2026-05-04 03:23 | 48.11627 | 16.56777 | 619 ft | 7 kts | 116° |
| 2026-05-04 03:23 | 48.11602 | 16.56850 | 620 ft | 10 kts | 117° |
| 2026-05-04 03:24 | 48.11570 | 16.56947 | 612 ft | 10 kts | 115° |
| 2026-05-04 03:24 | 48.11544 | 16.57027 | 617 ft | 8 kts | 117° |
| 2026-05-04 03:24 | 48.11520 | 16.57097 | 616 ft | 8 kts | 117° |
| 2026-05-04 03:24 | 48.11493 | 16.57180 | 611 ft | 10 kts | 116° |
| 2026-05-04 03:25 | 48.11460 | 16.57282 | 610 ft | 12 kts | 116° |
| 2026-05-04 03:25 | 48.11441 | 16.57401 | 609 ft | 12 kts | 72° |
| 2026-05-04 03:25 | 48.11503 | 16.57474 | 619 ft | 11 kts | 27° |
| 2026-05-04 03:25 | 48.11571 | 16.57529 | 610 ft | 11 kts | 26° |
| 2026-05-04 03:26 | 48.11645 | 16.57540 | 610 ft | 11 kts | 349° |
| 2026-05-04 03:26 | 48.11727 | 16.57506 | 615 ft | 13 kts | 344° |
| 2026-05-04 03:26 | 48.11807 | 16.57472 | 618 ft | 11 kts | 344° |
| 2026-05-04 03:26 | 48.11881 | 16.57441 | 609 ft | 11 kts | 344° |
| 2026-05-04 03:27 | 48.11961 | 16.57412 | 613 ft | 12 kts | 356° |
| 2026-05-04 03:27 | 48.12012 | 16.57486 | 614 ft | 11 kts | 90° |
| 2026-05-04 03:27 | 48.11990 | 16.57596 | 616 ft | 11 kts | 105° |
| 2026-05-04 03:27 | 48.11975 | 16.57710 | 616 ft | 11 kts | 100° |
| 2026-05-04 03:28 | 48.11948 | 16.57817 | 616 ft | 11 kts | 133° |
| 2026-05-04 03:28 | 48.11876 | 16.57861 | 613 ft | 14 kts | 165° |
| 2026-05-04 03:28 | 48.11615 | 16.57973 | 613 ft | 75 kts | 163° |
| 2026-05-04 03:28 | 48.10901 | 16.58286 | 611 ft | 135 kts | 163° |
| 2026-05-04 03:29 | 48.09868 | 16.58719 | 823 ft | 160 kts | 163° |
| 2026-05-04 03:29 | 48.08831 | 16.59175 | 1605 ft | 153 kts | 165° |
| 2026-05-04 03:29 | 48.07838 | 16.59687 | 2329 ft | 150 kts | 165° |
| 2026-05-04 03:29 | 48.06842 | 16.60201 | 2861 ft | 156 kts | 168° |
| 2026-05-04 03:30 | 48.05727 | 16.60647 | 3108 ft | 176 kts | 169° |
| 2026-05-04 03:30 | 48.04464 | 16.61130 | 3279 ft | 199 kts | 169° |
| 2026-05-04 03:30 | 48.03032 | 16.61685 | 3497 ft | 226 kts | 168° |
| 2026-05-04 03:30 | 48.01440 | 16.62313 | 4017 ft | 244 kts | 168° |
| 2026-05-04 03:31 | 47.99781 | 16.62986 | 4838 ft | 250 kts | 167° |
| 2026-05-04 03:31 | 47.98084 | 16.63393 | 5618 ft | 253 kts | 182° |
| 2026-05-04 03:31 | 47.96311 | 16.63293 | 6423 ft | 258 kts | 184° |
| 2026-05-04 03:31 | 47.94497 | 16.63176 | 7196 ft | 263 kts | 184° |
| 2026-05-04 03:32 | 47.92674 | 16.63062 | 7974 ft | 268 kts | 184° |
| 2026-05-04 03:32 | 47.90792 | 16.62943 | 8728 ft | 273 kts | 184° |
| 2026-05-04 03:32 | 47.88877 | 16.62821 | 9533 ft | 277 kts | 184° |
| 2026-05-04 03:32 | 47.86938 | 16.62698 | 10270 ft | 283 kts | 184° |
| 2026-05-04 03:33 | 47.84896 | 16.62566 | 10551 ft | 305 kts | 184° |
| 2026-05-04 03:33 | 47.82702 | 16.62424 | 10804 ft | 325 kts | 184° |
| 2026-05-04 03:33 | 47.80414 | 16.62279 | 11351 ft | 332 kts | 183° |
| 2026-05-04 03:33 | 47.78096 | 16.62146 | 12088 ft | 334 kts | 182° |
| 2026-05-04 03:34 | 47.75769 | 16.62455 | 12829 ft | 339 kts | 170° |
| 2026-05-04 03:34 | 47.73512 | 16.63530 | 13546 ft | 344 kts | 157° |
| 2026-05-04 03:34 | 47.71335 | 16.65072 | 14201 ft | 348 kts | 156° |
| 2026-05-04 03:34 | 47.69148 | 16.66626 | 14875 ft | 349 kts | 156° |
| 2026-05-04 03:35 | 47.66949 | 16.68185 | 15556 ft | 351 kts | 156° |
| 2026-05-04 03:35 | 47.64733 | 16.69749 | 16206 ft | 354 kts | 156° |
| 2026-05-04 03:35 | 47.62501 | 16.71317 | 16849 ft | 356 kts | 156° |
| 2026-05-04 03:35 | 47.60253 | 16.72891 | 17488 ft | 359 kts | 156° |
| 2026-05-04 03:36 | 47.57974 | 16.74420 | 18102 ft | 360 kts | 161° |
| 2026-05-04 03:36 | 47.55552 | 16.75390 | 18658 ft | 362 kts | 171° |
| 2026-05-04 03:36 | 47.53037 | 16.75733 | 19136 ft | 366 kts | 177° |
| 2026-05-04 03:36 | 47.50476 | 16.75970 | 19543 ft | 372 kts | 177° |
| 2026-05-04 03:37 | 47.47885 | 16.76209 | 20036 ft | 375 kts | 177° |
| 2026-05-04 03:37 | 47.45271 | 16.76456 | 20475 ft | 379 kts | 176° |
| 2026-05-04 03:37 | 47.42620 | 16.76709 | 20898 ft | 384 kts | 177° |
| 2026-05-04 03:37 | 47.39982 | 16.76959 | 21336 ft | 387 kts | 177° |
| 2026-05-04 03:38 | 47.37288 | 16.77215 | 21766 ft | 390 kts | 177° |
| 2026-05-04 03:38 | 47.34567 | 16.77477 | 22175 ft | 393 kts | 177° |
| 2026-05-04 03:38 | 47.31825 | 16.77744 | 22613 ft | 396 kts | 177° |
| 2026-05-04 03:38 | 47.29065 | 16.78009 | 23029 ft | 399 kts | 177° |
| 2026-05-04 03:39 | 47.26275 | 16.78274 | 23402 ft | 404 kts | 177° |
| 2026-05-04 03:39 | 47.23457 | 16.78541 | 23746 ft | 408 kts | 177° |
| 2026-05-04 03:39 | 47.20613 | 16.78815 | 24092 ft | 411 kts | 176° |
| 2026-05-04 03:39 | 47.17752 | 16.79092 | 24442 ft | 414 kts | 177° |
| 2026-05-04 03:40 | 47.14865 | 16.79368 | 24785 ft | 417 kts | 177° |
| 2026-05-04 03:40 | 47.11960 | 16.79642 | 25137 ft | 420 kts | 177° |
| 2026-05-04 03:40 | 47.09033 | 16.79920 | 25489 ft | 423 kts | 177° |
| 2026-05-04 03:40 | 47.06087 | 16.80199 | 25847 ft | 426 kts | 177° |
| 2026-05-04 03:41 | 47.03120 | 16.80479 | 26201 ft | 429 kts | 177° |
| 2026-05-04 03:41 | 47.00130 | 16.80756 | 26557 ft | 432 kts | 177° |
| 2026-05-04 03:41 | 46.97122 | 16.81034 | 26901 ft | 435 kts | 177° |
| 2026-05-04 03:41 | 46.94095 | 16.81372 | 27227 ft | 438 kts | 173° |
| 2026-05-04 03:42 | 46.91113 | 16.82366 | 27553 ft | 442 kts | 162° |
| 2026-05-04 03:42 | 46.88296 | 16.84207 | 27871 ft | 446 kts | 150° |
| 2026-05-04 03:42 | 46.85759 | 16.86833 | 28189 ft | 449 kts | 138° |
| 2026-05-04 03:42 | 46.83599 | 16.90130 | 28512 ft | 451 kts | 127° |
| 2026-05-04 03:43 | 46.81853 | 16.93939 | 28831 ft | 453 kts | 121° |
| 2026-05-04 03:43 | 46.80177 | 16.97851 | 29149 ft | 456 kts | 121° |
| 2026-05-04 03:43 | 46.78486 | 17.01783 | 29448 ft | 459 kts | 121° |
| 2026-05-04 03:43 | 46.76778 | 17.05736 | 29756 ft | 462 kts | 121° |
| 2026-05-04 03:44 | 46.75058 | 17.09708 | 30067 ft | 464 kts | 121° |
| 2026-05-04 03:44 | 46.73327 | 17.13699 | 30337 ft | 467 kts | 121° |
| 2026-05-04 03:44 | 46.71587 | 17.17707 | 30588 ft | 469 kts | 121° |
| 2026-05-04 03:44 | 46.69839 | 17.21732 | 30843 ft | 471 kts | 121° |
| 2026-05-04 03:45 | 46.68087 | 17.25764 | 31098 ft | 472 kts | 121° |
| 2026-05-04 03:45 | 46.66329 | 17.29808 | 31389 ft | 473 kts | 121° |
| 2026-05-04 03:45 | 46.64594 | 17.33788 | 31756 ft | 471 kts | 121° |
| 2026-05-04 03:45 | 46.62840 | 17.37803 | 32125 ft | 469 kts | 121° |
| 2026-05-04 03:46 | 46.61089 | 17.41803 | 32488 ft | 468 kts | 121° |
| 2026-05-04 03:46 | 46.59342 | 17.45791 | 32853 ft | 467 kts | 121° |
| 2026-05-04 03:46 | 46.57594 | 17.49766 | 33212 ft | 466 kts | 121° |
| 2026-05-04 03:46 | 46.55852 | 17.53730 | 33573 ft | 465 kts | 121° |
| 2026-05-04 03:47 | 46.54116 | 17.57686 | 33939 ft | 464 kts | 121° |
| 2026-05-04 03:47 | 46.52382 | 17.61632 | 34279 ft | 463 kts | 121° |
| 2026-05-04 03:47 | 46.50652 | 17.65561 | 34588 ft | 462 kts | 121° |
| 2026-05-04 03:47 | 46.48921 | 17.69480 | 34896 ft | 460 kts | 121° |
| 2026-05-04 03:48 | 46.47192 | 17.73389 | 35069 ft | 460 kts | 121° |
| 2026-05-04 03:48 | 46.43778 | 17.81100 | 35109 ft | 451 kts | 121° |
| 2026-05-04 03:49 | 46.40394 | 17.88729 | 35111 ft | 449 kts | 121° |
| 2026-05-04 03:49 | 46.37007 | 17.96334 | 35108 ft | 449 kts | 121° |
| 2026-05-04 03:50 | 46.33608 | 18.03931 | 35113 ft | 450 kts | 121° |
| 2026-05-04 03:50 | 46.30227 | 18.11472 | 35120 ft | 450 kts | 121° |
| 2026-05-04 03:51 | 46.26826 | 18.19056 | 35121 ft | 450 kts | 121° |
| 2026-05-04 03:51 | 46.23413 | 18.26623 | 35139 ft | 449 kts | 121° |
| 2026-05-04 03:52 | 46.19993 | 18.34178 | 35139 ft | 449 kts | 121° |
| 2026-05-04 03:52 | 46.16574 | 18.41725 | 35132 ft | 449 kts | 121° |
| 2026-05-04 03:53 | 46.13154 | 18.49263 | 35131 ft | 449 kts | 121° |
| 2026-05-04 03:53 | 46.09729 | 18.56789 | 35125 ft | 449 kts | 121° |
| 2026-05-04 03:54 | 46.06302 | 18.64309 | 35137 ft | 449 kts | 120° |
| 2026-05-04 03:54 | 46.02866 | 18.71813 | 35124 ft | 449 kts | 120° |
| 2026-05-04 03:55 | 45.99424 | 18.79312 | 35119 ft | 449 kts | 120° |
| 2026-05-04 03:55 | 45.95975 | 18.86807 | 35120 ft | 450 kts | 121° |
| 2026-05-04 03:56 | 45.91738 | 18.93366 | 35130 ft | 456 kts | 140° |
| 2026-05-04 03:56 | 45.86253 | 18.97982 | 35120 ft | 459 kts | 151° |
| 2026-05-04 03:57 | 45.80562 | 19.02147 | 35118 ft | 459 kts | 151° |
| 2026-05-04 03:57 | 45.74873 | 19.06315 | 35111 ft | 460 kts | 151° |
| 2026-05-04 03:58 | 45.66327 | 19.12567 | 35131 ft | 460 kts | 151° |
| 2026-05-04 03:58 | 45.60625 | 19.16727 | 35118 ft | 461 kts | 151° |
| 2026-05-04 03:59 | 45.54913 | 19.20884 | 35113 ft | 461 kts | 151° |
| 2026-05-04 03:59 | 45.49193 | 19.25028 | 35106 ft | 461 kts | 151° |
| 2026-05-04 04:00 | 45.43468 | 19.29176 | 35110 ft | 462 kts | 151° |
| 2026-05-04 04:00 | 45.37743 | 19.33319 | 35116 ft | 462 kts | 151° |
| 2026-05-04 04:01 | 45.32010 | 19.37449 | 35118 ft | 462 kts | 151° |
| 2026-05-04 04:01 | 45.26275 | 19.41572 | 35111 ft | 462 kts | 151° |
| 2026-05-04 04:02 | 45.20533 | 19.45688 | 35111 ft | 463 kts | 151° |
| 2026-05-04 04:02 | 45.14824 | 19.49772 | 35112 ft | 463 kts | 151° |
| 2026-05-04 04:03 | 45.09076 | 19.53877 | 35137 ft | 463 kts | 151° |
| 2026-05-04 04:03 | 45.03279 | 19.58008 | 35122 ft | 464 kts | 151° |
| 2026-05-04 04:04 | 44.97549 | 19.62079 | 35119 ft | 464 kts | 151° |
| 2026-05-04 04:04 | 44.91762 | 19.66150 | 35117 ft | 465 kts | 153° |
| 2026-05-04 04:05 | 44.85692 | 19.69371 | 35124 ft | 467 kts | 159° |
| 2026-05-04 04:05 | 44.79569 | 19.72438 | 35116 ft | 467 kts | 159° |
| 2026-05-04 04:06 | 44.73437 | 19.75507 | 35129 ft | 468 kts | 159° |
| 2026-05-04 04:06 | 44.67288 | 19.78564 | 35120 ft | 469 kts | 159° |
| 2026-05-04 04:07 | 44.61131 | 19.81613 | 35126 ft | 469 kts | 159° |
| 2026-05-04 04:07 | 44.54964 | 19.84657 | 35125 ft | 470 kts | 159° |
| 2026-05-04 04:08 | 44.48789 | 19.87702 | 35136 ft | 471 kts | 159° |
| 2026-05-04 04:08 | 44.42608 | 19.90750 | 35154 ft | 471 kts | 159° |
| 2026-05-04 04:09 | 44.36423 | 19.93796 | 35151 ft | 471 kts | 159° |
| 2026-05-04 04:09 | 44.31280 | 19.96326 | 35153 ft | 472 kts | 159° |
| 2026-05-04 04:10 | 44.24037 | 19.99870 | 35149 ft | 472 kts | 159° |
| 2026-05-04 04:10 | 44.18883 | 20.02388 | 35161 ft | 472 kts | 159° |
| 2026-05-04 04:11 | 44.12676 | 20.05410 | 35185 ft | 473 kts | 159° |
| 2026-05-04 04:11 | 44.06463 | 20.08429 | 35179 ft | 473 kts | 159° |
| 2026-05-04 04:12 | 44.00245 | 20.11438 | 35183 ft | 473 kts | 159° |
| 2026-05-04 04:12 | 43.94028 | 20.14441 | 35174 ft | 473 kts | 159° |
| 2026-05-04 04:13 | 43.87804 | 20.17454 | 35183 ft | 474 kts | 159° |
| 2026-05-04 04:13 | 43.81580 | 20.20465 | 35184 ft | 474 kts | 159° |
| 2026-05-04 04:14 | 43.75348 | 20.23474 | 35207 ft | 474 kts | 159° |
| 2026-05-04 04:14 | 43.69111 | 20.26461 | 35199 ft | 475 kts | 159° |
| 2026-05-04 04:15 | 43.62864 | 20.29445 | 35196 ft | 475 kts | 159° |
| 2026-05-04 04:15 | 43.56613 | 20.32427 | 35204 ft | 476 kts | 159° |
| 2026-05-04 04:16 | 43.50402 | 20.35391 | 35202 ft | 476 kts | 159° |
| 2026-05-04 04:16 | 43.44141 | 20.38376 | 35228 ft | 476 kts | 159° |
| 2026-05-04 04:17 | 43.37877 | 20.41344 | 35215 ft | 476 kts | 159° |
| 2026-05-04 04:17 | 43.31607 | 20.44310 | 35213 ft | 476 kts | 159° |
| 2026-05-04 04:18 | 43.25340 | 20.47276 | 35207 ft | 477 kts | 159° |
| 2026-05-04 04:18 | 43.19068 | 20.50235 | 35211 ft | 477 kts | 159° |
| 2026-05-04 04:19 | 43.12790 | 20.53193 | 35222 ft | 477 kts | 159° |
| 2026-05-04 04:19 | 43.06505 | 20.56143 | 35212 ft | 478 kts | 159° |
| 2026-05-04 04:20 | 43.00210 | 20.59101 | 35203 ft | 479 kts | 158° |
| 2026-05-04 04:20 | 42.93978 | 20.62297 | 35194 ft | 478 kts | 156° |
| 2026-05-04 04:21 | 42.87794 | 20.65671 | 35196 ft | 479 kts | 156° |
| 2026-05-04 04:21 | 42.81602 | 20.69013 | 35196 ft | 479 kts | 156° |
| 2026-05-04 04:22 | 42.75378 | 20.72281 | 35192 ft | 479 kts | 157° |
| 2026-05-04 04:22 | 42.69147 | 20.75518 | 35184 ft | 479 kts | 157° |
| 2026-05-04 04:23 | 42.62917 | 20.78771 | 35184 ft | 480 kts | 157° |
| 2026-05-04 04:23 | 42.56687 | 20.82026 | 35210 ft | 480 kts | 156° |
| 2026-05-04 04:24 | 42.50446 | 20.85275 | 35184 ft | 480 kts | 156° |
| 2026-05-04 04:24 | 42.44204 | 20.88530 | 35183 ft | 481 kts | 156° |
| 2026-05-04 04:25 | 42.37956 | 20.91781 | 35180 ft | 481 kts | 156° |
| 2026-05-04 04:25 | 42.31699 | 20.95018 | 35176 ft | 482 kts | 156° |
| 2026-05-04 04:26 | 42.25481 | 20.98220 | 35184 ft | 482 kts | 156° |
| 2026-05-04 04:26 | 42.19217 | 21.01453 | 35174 ft | 482 kts | 156° |
| 2026-05-04 04:27 | 42.12945 | 21.04700 | 35174 ft | 482 kts | 155° |
| 2026-05-04 04:27 | 42.07124 | 21.09038 | 35172 ft | 478 kts | 144° |
| 2026-05-04 04:28 | 42.01490 | 21.13799 | 35174 ft | 479 kts | 144° |
| 2026-05-04 04:28 | 41.95844 | 21.18561 | 35198 ft | 480 kts | 144° |
| 2026-05-04 04:29 | 41.90190 | 21.23325 | 35187 ft | 480 kts | 144° |
| 2026-05-04 04:29 | 41.84530 | 21.28085 | 35183 ft | 480 kts | 144° |
| 2026-05-04 04:30 | 41.78856 | 21.32829 | 35189 ft | 481 kts | 144° |
| 2026-05-04 04:30 | 41.73175 | 21.37578 | 35181 ft | 482 kts | 144° |
| 2026-05-04 04:31 | 41.67494 | 21.42333 | 35175 ft | 482 kts | 144° |
| 2026-05-04 04:31 | 41.61796 | 21.47076 | 35175 ft | 482 kts | 144° |
| 2026-05-04 04:32 | 41.56094 | 21.51815 | 35180 ft | 483 kts | 144° |
| 2026-05-04 04:32 | 41.50390 | 21.56554 | 35177 ft | 483 kts | 144° |
| 2026-05-04 04:33 | 41.44673 | 21.61288 | 35179 ft | 484 kts | 144° |
| 2026-05-04 04:33 | 41.38993 | 21.65974 | 35177 ft | 483 kts | 144° |
| 2026-05-04 04:34 | 41.33231 | 21.70715 | 35183 ft | 484 kts | 144° |
| 2026-05-04 04:34 | 41.27541 | 21.75392 | 35181 ft | 484 kts | 144° |
| 2026-05-04 04:35 | 41.21810 | 21.80095 | 35205 ft | 484 kts | 144° |
| 2026-05-04 04:35 | 41.16077 | 21.84800 | 35178 ft | 485 kts | 145° |
| 2026-05-04 04:36 | 41.10328 | 21.89495 | 35170 ft | 485 kts | 145° |
| 2026-05-04 04:36 | 41.04624 | 21.94267 | 35164 ft | 485 kts | 142° |
| 2026-05-04 04:37 | 40.93656 | 22.04610 | 35150 ft | 484 kts | 141° |
| 2026-05-04 04:38 | 40.88151 | 22.09751 | 35147 ft | 485 kts | 141° |
| 2026-05-04 04:38 | 40.82599 | 22.14824 | 35175 ft | 485 kts | 142° |
| 2026-05-04 04:39 | 40.77040 | 22.19891 | 35150 ft | 486 kts | 142° |
| 2026-05-04 04:39 | 40.71489 | 22.24975 | 35143 ft | 486 kts | 142° |
| 2026-05-04 04:40 | 40.65937 | 22.30061 | 35139 ft | 486 kts | 142° |
| 2026-05-04 04:40 | 40.60379 | 22.35136 | 35140 ft | 486 kts | 142° |
| 2026-05-04 04:41 | 40.54807 | 22.40202 | 35143 ft | 487 kts | 142° |
| 2026-05-04 04:41 | 40.49231 | 22.45265 | 35148 ft | 487 kts | 142° |
| 2026-05-04 04:42 | 40.43648 | 22.50325 | 35163 ft | 487 kts | 142° |
| 2026-05-04 04:42 | 40.38102 | 22.55343 | 35155 ft | 488 kts | 142° |
| 2026-05-04 04:43 | 40.32468 | 22.60309 | 35154 ft | 490 kts | 148° |
| 2026-05-04 04:43 | 40.26354 | 22.64311 | 35133 ft | 492 kts | 152° |
| 2026-05-04 04:44 | 40.20195 | 22.68228 | 35139 ft | 492 kts | 152° |
| 2026-05-04 04:44 | 40.14030 | 22.72148 | 35150 ft | 493 kts | 152° |
| 2026-05-04 04:45 | 40.07864 | 22.76069 | 35146 ft | 493 kts | 152° |
| 2026-05-04 04:47 | 39.86252 | 22.89738 | 35162 ft | 493 kts | 153° |
| 2026-05-04 04:47 | 39.80071 | 22.93623 | 35160 ft | 493 kts | 153° |
| 2026-05-04 04:48 | 39.73886 | 22.97509 | 35169 ft | 494 kts | 153° |
| 2026-05-04 04:49 | 39.58410 | 23.07208 | 35166 ft | 494 kts | 153° |
| 2026-05-04 04:49 | 39.52258 | 23.11045 | 35198 ft | 494 kts | 153° |
| 2026-05-04 04:50 | 39.46072 | 23.14897 | 35182 ft | 493 kts | 153° |
| 2026-05-04 04:50 | 39.39895 | 23.18740 | 35178 ft | 492 kts | 153° |
| 2026-05-04 04:51 | 39.33720 | 23.22564 | 35164 ft | 492 kts | 154° |
| 2026-05-04 04:51 | 39.27543 | 23.26392 | 35155 ft | 492 kts | 154° |
| 2026-05-04 04:52 | 39.21366 | 23.30204 | 35150 ft | 492 kts | 154° |
| 2026-05-04 04:52 | 39.15183 | 23.34022 | 35149 ft | 493 kts | 154° |
| 2026-05-04 04:53 | 39.08994 | 23.37830 | 35140 ft | 493 kts | 154° |
| 2026-05-04 04:53 | 39.02793 | 23.41630 | 35147 ft | 494 kts | 154° |
| 2026-05-04 04:54 | 38.96595 | 23.45434 | 35180 ft | 493 kts | 154° |
| 2026-05-04 04:54 | 38.90405 | 23.49227 | 35178 ft | 492 kts | 154° |
| 2026-05-04 04:55 | 38.84218 | 23.53006 | 35170 ft | 492 kts | 154° |
| 2026-05-04 04:55 | 38.78030 | 23.56771 | 35171 ft | 492 kts | 154° |
| 2026-05-04 04:56 | 38.71843 | 23.60536 | 35165 ft | 492 kts | 154° |
| 2026-05-04 04:56 | 38.65699 | 23.64273 | 35148 ft | 492 kts | 155° |
| 2026-05-04 04:57 | 38.59507 | 23.68027 | 35147 ft | 493 kts | 155° |
| 2026-05-04 04:57 | 38.53303 | 23.71772 | 35148 ft | 494 kts | 155° |
| 2026-05-04 04:58 | 38.47088 | 23.75516 | 35183 ft | 494 kts | 155° |
| 2026-05-04 04:58 | 38.40880 | 23.79266 | 35174 ft | 493 kts | 155° |
| 2026-05-04 04:59 | 38.34677 | 23.82998 | 35165 ft | 493 kts | 155° |
| 2026-05-04 04:59 | 38.28475 | 23.86717 | 35161 ft | 493 kts | 155° |
| 2026-05-04 05:00 | 38.22270 | 23.90435 | 35153 ft | 493 kts | 155° |
| 2026-05-04 05:01 | 38.14018 | 23.95377 | 35145 ft | 493 kts | 155° |
| 2026-05-04 05:01 | 38.07811 | 23.99065 | 35145 ft | 493 kts | 155° |
| 2026-05-04 05:02 | 38.01604 | 24.02759 | 35140 ft | 493 kts | 155° |
| 2026-05-04 05:02 | 37.95387 | 24.06445 | 35140 ft | 493 kts | 155° |
| 2026-05-04 05:03 | 37.89177 | 24.10135 | 35149 ft | 493 kts | 156° |
| 2026-05-04 05:04 | 37.76765 | 24.17483 | 35148 ft | 492 kts | 156° |
| 2026-05-04 05:04 | 37.70565 | 24.21139 | 35130 ft | 492 kts | 156° |
| 2026-05-04 05:06 | 37.49191 | 24.34986 | 33384 ft | 500 kts | 148° |
| 2026-05-04 05:06 | 37.46244 | 24.37314 | 33120 ft | 501 kts | 148° |
| 2026-05-04 05:06 | 37.43289 | 24.39645 | 32893 ft | 501 kts | 148° |
| 2026-05-04 05:07 | 37.40342 | 24.41965 | 32605 ft | 499 kts | 148° |
| 2026-05-04 05:07 | 37.37389 | 24.44282 | 32347 ft | 501 kts | 149° |
| 2026-05-04 05:07 | 37.34430 | 24.46601 | 32094 ft | 502 kts | 149° |
| 2026-05-04 05:09 | 37.10918 | 24.64916 | 30094 ft | 496 kts | 149° |
| 2026-05-04 05:09 | 37.07990 | 24.67190 | 29811 ft | 495 kts | 149° |
| 2026-05-04 05:10 | 37.05069 | 24.69458 | 29526 ft | 492 kts | 149° |
| 2026-05-04 05:10 | 37.02168 | 24.71710 | 29240 ft | 490 kts | 149° |
| 2026-05-04 05:10 | 36.99280 | 24.73949 | 28961 ft | 487 kts | 149° |
| 2026-05-04 05:10 | 36.96408 | 24.76171 | 28689 ft | 484 kts | 149° |
| 2026-05-04 05:11 | 36.93553 | 24.78375 | 28408 ft | 481 kts | 149° |
| 2026-05-04 05:11 | 36.90717 | 24.80563 | 28138 ft | 478 kts | 149° |
| 2026-05-04 05:11 | 36.87897 | 24.82741 | 27838 ft | 475 kts | 149° |
| 2026-05-04 05:11 | 36.85088 | 24.84915 | 27572 ft | 476 kts | 149° |
| 2026-05-04 05:12 | 36.82277 | 24.87094 | 27317 ft | 475 kts | 149° |
| 2026-05-04 05:12 | 36.79473 | 24.89266 | 27060 ft | 473 kts | 149° |
| 2026-05-04 05:12 | 36.76680 | 24.91428 | 26805 ft | 471 kts | 149° |
| 2026-05-04 05:12 | 36.73904 | 24.93571 | 26555 ft | 468 kts | 149° |
| 2026-05-04 05:13 | 36.71140 | 24.95700 | 26303 ft | 466 kts | 149° |
| 2026-05-04 05:13 | 36.68386 | 24.97815 | 26057 ft | 463 kts | 149° |
| 2026-05-04 05:13 | 36.65646 | 24.99911 | 25809 ft | 461 kts | 149° |
| 2026-05-04 05:13 | 36.62925 | 25.01993 | 25588 ft | 457 kts | 149° |
| 2026-05-04 05:14 | 36.60243 | 25.04046 | 25331 ft | 449 kts | 149° |
| 2026-05-04 05:14 | 36.57581 | 25.06084 | 25091 ft | 449 kts | 149° |
| 2026-05-04 05:14 | 36.54926 | 25.08117 | 24847 ft | 447 kts | 149° |
| 2026-05-04 05:14 | 36.52283 | 25.10141 | 24611 ft | 445 kts | 149° |
| 2026-05-04 05:15 | 36.49654 | 25.12155 | 24376 ft | 443 kts | 149° |
| 2026-05-04 05:15 | 36.47034 | 25.14154 | 24143 ft | 440 kts | 149° |
| 2026-05-04 05:15 | 36.44429 | 25.16134 | 23893 ft | 438 kts | 149° |
| 2026-05-04 05:15 | 36.41837 | 25.18103 | 23662 ft | 436 kts | 149° |
| 2026-05-04 05:16 | 36.39261 | 25.20065 | 23374 ft | 433 kts | 149° |
| 2026-05-04 05:16 | 36.36701 | 25.22016 | 23104 ft | 430 kts | 149° |
| 2026-05-04 05:16 | 36.34156 | 25.23953 | 22818 ft | 428 kts | 149° |
| 2026-05-04 05:16 | 36.31616 | 25.25879 | 22535 ft | 429 kts | 149° |
| 2026-05-04 05:17 | 36.29068 | 25.27809 | 22260 ft | 429 kts | 149° |
| 2026-05-04 05:17 | 36.26531 | 25.29733 | 21994 ft | 426 kts | 149° |
| 2026-05-04 05:17 | 36.24009 | 25.31643 | 21721 ft | 424 kts | 149° |
| 2026-05-04 05:17 | 36.21504 | 25.33542 | 21479 ft | 420 kts | 149° |
| 2026-05-04 05:18 | 36.19031 | 25.35415 | 21217 ft | 414 kts | 149° |
| 2026-05-04 05:18 | 36.16590 | 25.37260 | 20954 ft | 408 kts | 149° |
| 2026-05-04 05:18 | 36.14193 | 25.39069 | 20523 ft | 400 kts | 149° |
| 2026-05-04 05:18 | 36.11778 | 25.40629 | 20056 ft | 394 kts | 159° |
| 2026-05-04 05:19 | 36.09218 | 25.41746 | 19593 ft | 387 kts | 164° |
| 2026-05-04 05:19 | 36.06670 | 25.42766 | 19123 ft | 383 kts | 164° |
| 2026-05-04 05:19 | 36.04150 | 25.43781 | 18684 ft | 379 kts | 164° |
| 2026-05-04 05:19 | 36.01662 | 25.44787 | 18209 ft | 374 kts | 164° |
| 2026-05-04 05:20 | 35.99203 | 25.45781 | 17751 ft | 369 kts | 164° |
| 2026-05-04 05:20 | 35.96778 | 25.46758 | 17312 ft | 364 kts | 164° |
| 2026-05-04 05:20 | 35.94388 | 25.47717 | 16892 ft | 359 kts | 164° |
| 2026-05-04 05:20 | 35.92030 | 25.48662 | 16476 ft | 354 kts | 164° |
| 2026-05-04 05:21 | 35.89703 | 25.49593 | 16060 ft | 349 kts | 164° |
| 2026-05-04 05:21 | 35.87403 | 25.50513 | 15653 ft | 346 kts | 163° |
| 2026-05-04 05:21 | 35.85127 | 25.51424 | 15244 ft | 343 kts | 163° |
| 2026-05-04 05:21 | 35.82865 | 25.52332 | 14820 ft | 341 kts | 163° |
| 2026-05-04 05:22 | 35.80616 | 25.53233 | 14412 ft | 339 kts | 163° |
| 2026-05-04 05:22 | 35.78379 | 25.54128 | 14016 ft | 337 kts | 163° |
| 2026-05-04 05:22 | 35.76156 | 25.55019 | 13582 ft | 335 kts | 163° |
| 2026-05-04 05:22 | 35.73946 | 25.55905 | 13167 ft | 333 kts | 163° |
| 2026-05-04 05:23 | 35.71753 | 25.56782 | 12759 ft | 330 kts | 163° |
| 2026-05-04 05:23 | 35.69643 | 25.57855 | 12480 ft | 328 kts | 152° |
| 2026-05-04 05:23 | 35.67729 | 25.59389 | 12128 ft | 327 kts | 141° |
| 2026-05-04 05:23 | 35.65964 | 25.61147 | 11733 ft | 326 kts | 140° |
| 2026-05-04 05:24 | 35.64204 | 25.62890 | 11326 ft | 324 kts | 140° |
| 2026-05-04 05:24 | 35.62450 | 25.64613 | 10910 ft | 322 kts | 143° |
| 2026-05-04 05:24 | 35.60466 | 25.65804 | 10532 ft | 317 kts | 171° |
| 2026-05-04 05:24 | 35.58322 | 25.65758 | 10329 ft | 305 kts | 200° |
| 2026-05-04 05:25 | 35.56477 | 25.64619 | 10235 ft | 293 kts | 227° |
| 2026-05-04 05:25 | 35.55244 | 25.62727 | 10126 ft | 281 kts | 247° |
| 2026-05-04 05:25 | 35.54320 | 25.60590 | 9674 ft | 286 kts | 248° |
| 2026-05-04 05:25 | 35.53394 | 25.58445 | 9237 ft | 282 kts | 248° |
| 2026-05-04 05:26 | 35.52468 | 25.56313 | 8706 ft | 281 kts | 248° |
| 2026-05-04 05:26 | 35.51549 | 25.54199 | 8182 ft | 281 kts | 248° |
| 2026-05-04 05:26 | 35.50636 | 25.52096 | 7674 ft | 280 kts | 248° |
| 2026-05-04 05:26 | 35.49725 | 25.49996 | 7289 ft | 276 kts | 248° |
| 2026-05-04 05:27 | 35.48825 | 25.47933 | 6890 ft | 272 kts | 247° |
| 2026-05-04 05:28 | 35.39853 | 25.42563 | 4886 ft | 265 kts | 149° |
| 2026-05-04 05:29 | 35.38229 | 25.43569 | 4491 ft | 265 kts | 164° |
| 2026-05-04 05:29 | 35.36438 | 25.43565 | 4102 ft | 256 kts | 204° |
| 2026-05-04 05:29 | 35.35077 | 25.42325 | 3713 ft | 240 kts | 242° |
| 2026-05-04 05:29 | 35.34299 | 25.40520 | 3336 ft | 235 kts | 251° |
| 2026-05-04 05:31 | 35.33129 | 25.29854 | 2280 ft | 140 kts | 281° |
| 2026-05-04 05:31 | 35.33215 | 25.28662 | 1830 ft | 141 kts | 281° |
| 2026-05-04 05:32 | 35.33298 | 25.27481 | 1499 ft | 134 kts | 279° |
| 2026-05-04 05:32 | 35.33235 | 25.26368 | 1549 ft | 131 kts | 273° |
| 2026-05-04 05:32 | 35.33180 | 25.25247 | 1460 ft | 132 kts | 274° |
| 2026-05-04 05:33 | 35.33333 | 25.23052 | 1251 ft | 128 kts | 285° |
| 2026-05-04 05:33 | 35.33510 | 25.21987 | 1089 ft | 127 kts | 289° |
| 2026-05-04 05:33 | 35.33934 | 25.21106 | 1078 ft | 121 kts | 324° |
| 2026-05-04 05:33 | 35.34760 | 25.20869 | 988 ft | 130 kts | 7° |
| 2026-05-04 05:34 | 35.35500 | 25.21565 | 1157 ft | 147 kts | 48° |
| 2026-05-04 05:34 | 35.35658 | 25.22828 | 1356 ft | 162 kts | 99° |
| 2026-05-04 05:34 | 35.35256 | 25.24116 | 1586 ft | 160 kts | 99° |
| 2026-05-04 05:34 | 35.35097 | 25.25481 | 1804 ft | 165 kts | 86° |
| 2026-05-04 05:35 | 35.35024 | 25.26892 | 1989 ft | 167 kts | 85° |
| 2026-05-04 05:35 | 35.34973 | 25.28316 | 2039 ft | 167 kts | 85° |
| 2026-05-04 05:35 | 35.34933 | 25.29721 | 2038 ft | 164 kts | 85° |
| 2026-05-04 05:35 | 35.34801 | 25.31118 | 2018 ft | 170 kts | 106° |
| 2026-05-04 05:36 | 35.33993 | 25.32181 | 2002 ft | 178 kts | 154° |
| 2026-05-04 05:36 | 35.32807 | 25.32310 | 1877 ft | 169 kts | 204° |
| 2026-05-04 05:36 | 35.31972 | 25.31469 | 1745 ft | 150 kts | 253° |
| 2026-05-04 05:36 | 35.31947 | 25.30315 | 1648 ft | 136 kts | 294° |
| 2026-05-04 05:37 | 35.32357 | 25.29296 | 1524 ft | 132 kts | 304° |
| 2026-05-04 05:37 | 35.32799 | 25.28375 | 1387 ft | 122 kts | 305° |
| 2026-05-04 05:37 | 35.33228 | 25.27501 | 1270 ft | 118 kts | 305° |
| 2026-05-04 05:38 | 35.33294 | 25.25516 | 1079 ft | 127 kts | 266° |
| 2026-05-04 05:38 | 35.33316 | 25.24472 | 1041 ft | 121 kts | 283° |
| 2026-05-04 05:38 | 35.33459 | 25.23463 | 1005 ft | 120 kts | 287° |
| 2026-05-04 05:38 | 35.33618 | 25.22464 | 855 ft | 119 kts | 285° |
| 2026-05-04 05:39 | 35.33734 | 25.21465 | 673 ft | 118 kts | 281° |
| 2026-05-04 05:39 | 35.33869 | 25.19476 | 299 ft | 116 kts | 281° |
| 2026-05-04 05:39 | 35.33940 | 25.18490 | 117 ft | 116 kts | 280° |
| 2026-05-04 05:40 | 35.34029 | 25.17324 | 89 ft | 42 kts | 276° |
| 2026-05-04 05:40 | 35.34052 | 25.16982 | 77 ft | 22 kts | 273° |
| 2026-05-04 05:40 | 35.34019 | 25.16872 | 72 ft | 6 kts | 178° |
| 2026-05-04 05:41 | 35.33988 | 25.16911 | 66 ft | 6 kts | 124° |
| 2026-05-04 05:41 | 35.33967 | 25.16957 | 73 ft | 6 kts | 118° |
| 2026-05-04 05:41 | 35.33951 | 25.16999 | 69 ft | 5 kts | 108° |
| 2026-05-04 05:41 | 35.33946 | 25.17036 | 77 ft | 5 kts | 99° |
| 2026-05-04 05:42 | 35.33940 | 25.17098 | 76 ft | 9 kts | 95° |
| 2026-05-04 05:42 | 35.33935 | 25.17169 | 80 ft | 7 kts | 95° |
| 2026-05-04 05:42 | 35.33931 | 25.17226 | 82 ft | 8 kts | 95° |
| 2026-05-04 05:42 | 35.33925 | 25.17314 | 86 ft | 13 kts | 94° |
| 2026-05-04 05:43 | 35.33918 | 25.17424 | 86 ft | 12 kts | 95° |
| 2026-05-04 05:43 | 35.33911 | 25.17519 | 90 ft | 10 kts | 95° |
| 2026-05-04 05:43 | 35.33904 | 25.17595 | 91 ft | 8 kts | 106° |
| 2026-05-04 05:45 | 35.33765 | 25.17458 | 88 ft | 5 kts | 276° |
| 2026-05-04 05:45 | 35.33766 | 25.17450 | 89 ft | 0 kts | 275° |